Time;durP1;ratioP1;P1;durP2;ratioP2;P2;SDS_P1;SDS_P2;PMS_P1;PMS_P2;Temp;Humidity;BMP_temperature;BMP_pressure;BME280_temperature;BME280_humidity;BME280_pressure;Samples;Min_cycle;Max_cycle;Signal;HPM_P1;HPM_P2
2021/04/26 00:00:52;;;;;;;10.32;3.40;;;;;;;;;;5054671;28;20879;-67
2021/04/26 00:03:18;;;;;;;10.70;3.20;;;;;;;;;;5075341;28;20401;-66
2021/04/26 00:05:44;;;;;;;8.63;3.13;;;;;;;;;;5075740;28;20784;-67
2021/04/26 00:08:10;;;;;;;8.82;3.13;;;;;;;;;;5072418;28;20390;-66
2021/04/26 00:10:36;;;;;;;11.48;3.58;;;;;;;;;;5063792;28;20476;-66
2021/04/26 00:13:02;;;;;;;9.93;3.13;;;;;;;;;;5080921;28;20403;-67
2021/04/26 00:15:29;;;;;;;7.77;2.83;;;;;;;;;;5093673;28;20418;-67
2021/04/26 00:17:55;;;;;;;8.95;2.83;;;;;;;;;;5085523;28;20409;-66
2021/04/26 00:20:23;;;;;;;11.13;3.22;;;;;;;;;;5080362;28;20379;-66
2021/04/26 00:22:49;;;;;;;7.47;2.97;;;;;;;;;;5061266;28;20399;-66
2021/04/26 00:25:15;;;;;;;13.80;3.38;;;;;;;;;;5057969;28;20841;-67
2021/04/26 00:27:42;;;;;;;8.52;2.88;;;;;;;;;;5074006;28;20399;-67
2021/04/26 00:30:10;;;;;;;9.75;3.08;;;;;;;;;;5076722;28;20448;-66
2021/04/26 00:32:36;;;;;;;9.35;2.90;;;;;;;;;;5084214;28;20384;-66
2021/04/26 00:35:03;;;;;;;7.85;2.88;;;;;;;;;;5079694;28;20439;-68
2021/04/26 00:37:29;;;;;;;7.40;2.95;;;;;;;;;;5071668;28;20853;-67
2021/04/26 00:39:56;;;;;;;9.38;3.05;;;;;;;;;;5067449;28;20395;-66
2021/04/26 00:42:22;;;;;;;11.38;3.22;;;;;;;;;;5073418;28;20379;-67
2021/04/26 00:44:48;;;;;;;9.95;3.38;;;;;;;;;;5075661;28;20486;-66
2021/04/26 00:47:14;;;;;;;9.95;3.08;;;;;;;;;;5077735;28;20817;-66
2021/04/26 00:49:40;;;;;;;9.43;3.15;;;;;;;;;;5079738;28;20398;-67
2021/04/26 00:52:06;;;;;;;8.30;3.00;;;;;;;;;;5077736;28;20437;-66
2021/04/26 00:54:32;;;;;;;11.03;3.13;;;;;;;;;;5077558;28;20399;-66
2021/04/26 00:56:58;;;;;;;8.05;2.85;;;;;;;;;;5078874;28;20512;-66
2021/04/26 00:59:24;;;;;;;11.32;3.40;;;;;;;;;;5085043;28;20493;-66
2021/04/26 01:01:50;;;;;;;11.75;4.15;;;;;;;;;;5071551;28;20837;-66
2021/04/26 01:04:16;;;;;;;9.85;2.92;;;;;;;;;;5076385;28;20470;-66
2021/04/26 01:06:42;;;;;;;10.93;3.25;;;;;;;;;;5070548;28;20384;-66
2021/04/26 01:09:08;;;;;;;7.72;2.80;;;;;;;;;;5080496;28;20437;-67
2021/04/26 01:11:49;;;;;;;8.07;3.03;;;;;;;;;;5080979;28;20390;-67
2021/04/26 01:14:31;;;;;;;8.70;2.90;;;;;;;;;;5077482;28;20448;-66
2021/04/26 01:17:04;;;;;;;8.43;2.90;;;;;;;;;;5079986;28;20447;-67
2021/04/26 01:19:46;;;;;;;9.63;3.35;;;;;;;;;;5080161;28;20383;-67
2021/04/26 01:22:15;;;;;;;8.02;3.28;;;;;;;;;;5079913;28;20390;-66
2021/04/26 01:24:50;;;;;;;7.68;2.90;;;;;;;;;;5078304;28;20397;-66
2021/04/26 01:27:19;;;;;;;10.57;2.80;;;;;;;;;;5087121;28;20443;-66
2021/04/26 01:30:03;;;;;;;8.50;2.60;;;;;;;;;;5073272;28;20394;-67
2021/04/26 01:32:49;;;;;;;8.98;3.17;;;;;;;;;;5081145;28;20407;-66
2021/04/26 01:35:16;;;;;;;9.60;3.08;;;;;;;;;;5073010;28;20438;-66
2021/04/26 01:37:43;;;;;;;9.63;3.15;;;;;;;;;;5074680;28;20399;-67
2021/04/26 01:40:12;;;;;;;8.52;3.10;;;;;;;;;;5066836;28;20392;-66
2021/04/26 01:42:39;;;;;;;7.30;2.70;;;;;;;;;;5087890;28;20537;-66
2021/04/26 01:45:07;;;;;;;9.27;2.97;;;;;;;;;;5077148;28;20468;-66
2021/04/26 01:47:34;;;;;;;7.33;2.90;;;;;;;;;;5069888;28;20471;-66
2021/04/26 01:50:00;;;;;;;12.73;3.40;;;;;;;;;;5085884;28;20982;-67
2021/04/26 01:52:26;;;;;;;12.68;3.28;;;;;;;;;;5072547;28;20882;-66
2021/04/26 01:54:53;;;;;;;13.02;3.80;;;;;;;;;;5058536;28;20402;-67
2021/04/26 01:57:20;;;;;;;9.30;3.30;;;;;;;;;;5077990;28;20387;-66
2021/04/26 01:59:46;;;;;;;9.85;2.92;;;;;;;;;;5061842;28;20390;-66
2021/04/26 02:02:12;;;;;;;9.48;4.07;;;;;;;;;;5074364;28;20391;-66
2021/04/26 02:04:40;;;;;;;11.45;3.72;;;;;;;;;;5075780;28;20517;-66
2021/04/26 02:07:06;;;;;;;12.13;3.40;;;;;;;;;;5077836;28;20396;-66
2021/04/26 02:09:35;;;;;;;8.50;3.08;;;;;;;;;;5072698;28;20514;-66
2021/04/26 02:12:02;;;;;;;9.60;3.13;;;;;;;;;;5073875;28;20443;-67
2021/04/26 02:14:29;;;;;;;8.35;3.00;;;;;;;;;;5074633;28;20390;-66
2021/04/26 02:16:55;;;;;;;8.07;3.00;;;;;;;;;;5065109;28;20407;-66
2021/04/26 02:19:22;;;;;;;10.07;3.45;;;;;;;;;;5080874;28;20405;-66
2021/04/26 02:21:47;;;;;;;7.90;3.00;;;;;;;;;;5079409;28;20386;-66
2021/04/26 02:24:13;;;;;;;9.35;2.80;;;;;;;;;;5079412;28;20683;-66
2021/04/26 02:26:39;;;;;;;9.57;3.30;;;;;;;;;;5062946;28;20400;-67
2021/04/26 02:29:05;;;;;;;9.65;3.20;;;;;;;;;;5086627;28;20865;-66
2021/04/26 02:31:35;;;;;;;8.23;3.27;;;;;;;;;;5082888;28;20449;-66
2021/04/26 02:34:07;;;;;;;8.57;3.20;;;;;;;;;;5078053;28;20747;-66
2021/04/26 02:36:35;;;;;;;6.80;3.10;;;;;;;;;;5077373;28;20477;-66
2021/04/26 02:39:04;;;;;;;6.93;2.60;;;;;;;;;;5078668;28;20848;-66
2021/04/26 02:41:32;;;;;;;11.48;2.90;;;;;;;;;;5082433;28;20410;-66
2021/04/26 02:43:59;;;;;;;8.27;2.97;;;;;;;;;;5072345;28;20461;-66
2021/04/26 02:46:27;;;;;;;9.07;2.80;;;;;;;;;;5085655;28;20418;-66
2021/04/26 02:48:53;;;;;;;9.25;2.97;;;;;;;;;;5073101;28;20423;-67
2021/04/26 02:51:20;;;;;;;7.25;2.80;;;;;;;;;;5085627;28;20397;-67
2021/04/26 02:53:46;;;;;;;8.35;2.95;;;;;;;;;;5090258;28;20409;-66
2021/04/26 02:56:16;;;;;;;9.00;3.03;;;;;;;;;;5084301;28;20947;-66
2021/04/26 02:58:44;;;;;;;6.93;3.00;;;;;;;;;;5083140;28;20394;-66
2021/04/26 03:01:11;;;;;;;7.88;3.33;;;;;;;;;;5085172;28;20633;-66
2021/04/26 03:03:39;;;;;;;7.65;3.10;;;;;;;;;;5079069;28;20399;-66
2021/04/26 03:06:05;;;;;;;9.75;3.30;;;;;;;;;;5080731;28;20477;-66
2021/04/26 03:08:31;;;;;;;9.85;3.17;;;;;;;;;;5083487;28;20389;-66
2021/04/26 03:10:58;;;;;;;7.97;2.92;;;;;;;;;;5081637;28;20420;-66
2021/04/26 03:13:31;;;;;;;10.27;2.83;;;;;;;;;;5083113;28;20387;-66
2021/04/26 03:15:57;;;;;;;8.45;2.88;;;;;;;;;;5076831;28;20428;-67
2021/04/26 03:18:23;;;;;;;7.70;2.67;;;;;;;;;;5067791;28;20447;-66
2021/04/26 03:20:50;;;;;;;7.20;2.97;;;;;;;;;;5079860;28;21464;-67
2021/04/26 03:23:17;;;;;;;7.38;2.90;;;;;;;;;;5070931;28;20408;-66
2021/04/26 03:25:43;;;;;;;6.80;2.47;;;;;;;;;;5083425;28;20411;-66
2021/04/26 03:28:11;;;;;;;8.50;2.97;;;;;;;;;;5085569;28;20523;-66
2021/04/26 03:30:37;;;;;;;7.50;2.80;;;;;;;;;;5082072;28;20387;-66
2021/04/26 03:33:03;;;;;;;7.30;2.67;;;;;;;;;;5061960;28;20541;-66
2021/04/26 03:35:29;;;;;;;9.35;2.80;;;;;;;;;;5083805;28;20483;-68
2021/04/26 03:37:56;;;;;;;9.20;2.90;;;;;;;;;;5080687;28;20387;-66
2021/04/26 03:40:23;;;;;;;9.43;3.28;;;;;;;;;;5078936;28;20457;-66
2021/04/26 03:42:53;;;;;;;10.65;3.10;;;;;;;;;;5068801;28;20404;-66
2021/04/26 03:45:19;;;;;;;8.80;2.95;;;;;;;;;;5086673;28;20386;-66
2021/04/26 03:47:45;;;;;;;10.05;3.00;;;;;;;;;;5085373;28;20452;-66
2021/04/26 03:50:12;;;;;;;7.90;2.90;;;;;;;;;;5085660;28;20414;-66
2021/04/26 03:52:38;;;;;;;7.20;2.80;;;;;;;;;;5075818;28;20494;-66
2021/04/26 03:55:04;;;;;;;7.88;3.17;;;;;;;;;;5079479;28;20394;-66
2021/04/26 03:57:30;;;;;;;10.55;3.10;;;;;;;;;;5061398;28;20710;-66
2021/04/26 03:59:57;;;;;;;9.55;3.03;;;;;;;;;;5072142;28;20387;-66
2021/04/26 04:02:26;;;;;;;7.90;3.10;;;;;;;;;;5084630;28;20429;-66
2021/04/26 04:04:52;;;;;;;8.97;2.80;;;;;;;;;;5087082;28;20521;-66
2021/04/26 04:07:18;;;;;;;7.65;2.97;;;;;;;;;;5081858;28;20483;-66
2021/04/26 04:09:43;;;;;;;7.97;2.80;;;;;;;;;;5071758;28;20482;-66
2021/04/26 04:12:10;;;;;;;9.68;3.33;;;;;;;;;;5073750;28;20390;-67
2021/04/26 04:14:35;;;;;;;10.48;3.55;;;;;;;;;;5062290;28;20783;-66
2021/04/26 04:17:03;;;;;;;8.30;3.03;;;;;;;;;;5078918;28;20492;-66
2021/04/26 04:19:29;;;;;;;7.45;3.33;;;;;;;;;;5082376;28;20414;-66
2021/04/26 04:21:55;;;;;;;8.43;3.08;;;;;;;;;;5088129;28;20399;-66
2021/04/26 04:24:21;;;;;;;7.63;3.10;;;;;;;;;;5078421;28;20384;-67
2021/04/26 04:26:47;;;;;;;9.70;3.40;;;;;;;;;;5085983;28;20463;-66
2021/04/26 04:29:13;;;;;;;10.93;3.30;;;;;;;;;;5085408;28;21039;-66
2021/04/26 04:31:39;;;;;;;8.17;3.20;;;;;;;;;;5088731;28;20381;-66
2021/04/26 04:34:05;;;;;;;9.90;3.55;;;;;;;;;;5084912;28;20420;-66
2021/04/26 04:36:31;;;;;;;8.68;3.28;;;;;;;;;;5081825;28;20863;-67
2021/04/26 04:38:57;;;;;;;9.90;3.90;;;;;;;;;;5088782;28;20400;-67
2021/04/26 04:41:23;;;;;;;7.22;2.90;;;;;;;;;;5082009;28;20543;-66
2021/04/26 04:43:49;;;;;;;8.23;3.37;;;;;;;;;;5081183;28;20398;-67
2021/04/26 04:46:16;;;;;;;7.97;3.30;;;;;;;;;;5071689;28;20482;-67
2021/04/26 04:48:41;;;;;;;10.50;3.50;;;;;;;;;;5081719;28;20382;-67
2021/04/26 04:51:07;;;;;;;7.93;3.33;;;;;;;;;;5073312;28;21300;-65
2021/04/26 04:53:33;;;;;;;7.03;3.17;;;;;;;;;;5078772;28;20853;-66
2021/04/26 04:55:59;;;;;;;8.90;3.60;;;;;;;;;;5080295;28;20499;-66
2021/04/26 04:58:25;;;;;;;8.53;3.13;;;;;;;;;;5077361;28;20406;-66
2021/04/26 05:00:51;;;;;;;9.45;3.45;;;;;;;;;;5061164;28;20393;-66
2021/04/26 05:03:17;;;;;;;8.13;3.30;;;;;;;;;;5086716;28;20886;-66
2021/04/26 05:05:43;;;;;;;8.67;3.17;;;;;;;;;;5079170;28;20696;-66
2021/04/26 05:08:09;;;;;;;10.18;3.08;;;;;;;;;;5065567;28;20441;-66
2021/04/26 05:10:35;;;;;;;9.48;3.42;;;;;;;;;;5073365;28;20673;-65
2021/04/26 05:13:01;;;;;;;9.50;3.50;;;;;;;;;;5082314;28;20426;-66
2021/04/26 05:15:28;;;;;;;8.10;3.30;;;;;;;;;;5079176;28;20416;-67
2021/04/26 05:17:54;;;;;;;7.85;3.40;;;;;;;;;;5079178;28;20416;-66
2021/04/26 05:20:20;;;;;;;8.00;3.40;;;;;;;;;;5070542;28;20393;-67
2021/04/26 05:22:46;;;;;;;9.17;3.53;;;;;;;;;;5086532;28;20394;-66
2021/04/26 05:25:13;;;;;;;8.63;3.60;;;;;;;;;;5070376;28;20935;-66
2021/04/26 05:27:39;;;;;;;7.43;3.50;;;;;;;;;;5076230;28;20417;-66
2021/04/26 05:30:06;;;;;;;9.70;3.47;;;;;;;;;;5077947;28;20460;-66
2021/04/26 05:32:32;;;;;;;10.90;3.93;;;;;;;;;;5061093;28;20399;-66
2021/04/26 05:34:58;;;;;;;7.40;3.15;;;;;;;;;;5077543;28;20407;-66
2021/04/26 05:37:24;;;;;;;8.60;3.30;;;;;;;;;;5072483;28;20394;-66
2021/04/26 05:39:50;;;;;;;9.75;3.25;;;;;;;;;;5085011;28;20393;-66
2021/04/26 05:42:16;;;;;;;6.68;3.13;;;;;;;;;;5086317;28;20395;-66
2021/04/26 05:44:42;;;;;;;8.98;3.60;;;;;;;;;;5091999;28;20482;-66
2021/04/26 05:47:08;;;;;;;6.75;3.50;;;;;;;;;;5073075;28;20430;-66
2021/04/26 05:49:34;;;;;;;8.60;3.40;;;;;;;;;;5068856;28;20770;-66
2021/04/26 05:52:00;;;;;;;8.18;3.50;;;;;;;;;;5072928;28;20403;-66
2021/04/26 05:54:26;;;;;;;7.93;3.90;;;;;;;;;;5091349;28;20390;-66
2021/04/26 05:56:52;;;;;;;8.02;3.10;;;;;;;;;;5086220;28;21081;-66
2021/04/26 05:59:18;;;;;;;9.75;3.28;;;;;;;;;;5079700;28;20794;-66
2021/04/26 06:01:44;;;;;;;9.13;3.65;;;;;;;;;;5085835;28;20396;-66
2021/04/26 06:04:10;;;;;;;8.93;3.58;;;;;;;;;;5077137;28;20466;-66
2021/04/26 06:06:36;;;;;;;9.55;3.50;;;;;;;;;;5087810;28;20385;-67
2021/04/26 06:09:02;;;;;;;7.57;3.40;;;;;;;;;;5104204;28;20392;-66
2021/04/26 06:11:28;;;;;;;10.50;3.05;;;;;;;;;;5069705;28;20368;-66
2021/04/26 06:13:54;;;;;;;10.75;3.70;;;;;;;;;;5085782;28;21065;-66
2021/04/26 06:16:20;;;;;;;8.88;3.67;;;;;;;;;;5075994;28;20729;-66
2021/04/26 06:18:46;;;;;;;10.60;3.75;;;;;;;;;;5069507;28;20421;-66
2021/04/26 06:21:12;;;;;;;10.70;3.60;;;;;;;;;;5071843;28;20465;-66
2021/04/26 06:23:38;;;;;;;8.48;3.42;;;;;;;;;;5088954;28;20396;-66
2021/04/26 06:26:04;;;;;;;11.65;4.00;;;;;;;;;;5110317;28;20451;-66
2021/04/26 06:28:30;;;;;;;7.55;3.30;;;;;;;;;;5093704;28;20475;-66
2021/04/26 06:30:56;;;;;;;8.35;3.70;;;;;;;;;;5074941;28;20851;-66
2021/04/26 06:33:22;;;;;;;11.10;3.70;;;;;;;;;;5089439;28;20420;-66
2021/04/26 06:35:50;;;;;;;9.10;3.40;;;;;;;;;;5101097;28;20426;-66
2021/04/26 06:38:16;;;;;;;10.50;3.90;;;;;;;;;;5083843;28;20382;-66
2021/04/26 06:40:42;;;;;;;10.18;3.72;;;;;;;;;;5103282;28;20464;-66
2021/04/26 06:43:09;;;;;;;8.30;3.50;;;;;;;;;;5086740;28;20386;-67
2021/04/26 06:45:35;;;;;;;8.55;3.58;;;;;;;;;;5089677;28;20431;-67
2021/04/26 06:48:01;;;;;;;9.65;3.60;;;;;;;;;;5088195;28;20394;-66
2021/04/26 06:50:27;;;;;;;10.40;3.80;;;;;;;;;;5091283;28;20391;-66
2021/04/26 06:52:55;;;;;;;8.47;3.10;;;;;;;;;;5087377;28;20691;-66
2021/04/26 06:55:21;;;;;;;7.93;3.47;;;;;;;;;;5076746;28;20410;-66
2021/04/26 06:57:47;;;;;;;9.57;3.15;;;;;;;;;;5082947;28;20842;-67
2021/04/26 07:00:14;;;;;;;8.93;3.25;;;;;;;;;;5100606;28;20395;-66
2021/04/26 07:02:40;;;;;;;10.50;3.55;;;;;;;;;;5091744;28;21027;-66
2021/04/26 07:05:07;;;;;;;8.75;3.25;;;;;;;;;;5056666;28;20391;-66
2021/04/26 07:07:33;;;;;;;10.13;3.50;;;;;;;;;;5052000;28;20821;-67
2021/04/26 07:09:59;;;;;;;10.65;3.33;;;;;;;;;;5092347;28;20397;-67
2021/04/26 07:12:25;;;;;;;8.35;3.40;;;;;;;;;;5093751;28;20391;-66
2021/04/26 07:14:51;;;;;;;8.73;3.22;;;;;;;;;;5072888;28;20390;-66
2021/04/26 07:17:17;;;;;;;8.30;2.95;;;;;;;;;;5085404;28;20410;-67
2021/04/26 07:19:43;;;;;;;8.88;3.17;;;;;;;;;;5085044;28;20399;-67
2021/04/26 07:22:09;;;;;;;7.90;3.00;;;;;;;;;;5084015;28;20400;-67
2021/04/26 07:24:35;;;;;;;10.23;2.83;;;;;;;;;;5070462;28;20397;-67
2021/04/26 07:27:01;;;;;;;9.37;3.00;;;;;;;;;;5087838;28;20393;-67
2021/04/26 07:29:27;;;;;;;10.20;3.40;;;;;;;;;;5086821;28;20382;-67
2021/04/26 07:31:53;;;;;;;10.98;3.60;;;;;;;;;;5090761;28;20390;-67
2021/04/26 07:34:19;;;;;;;8.07;3.17;;;;;;;;;;5092547;28;20398;-67
2021/04/26 07:36:45;;;;;;;9.55;2.90;;;;;;;;;;5103194;28;20484;-67
2021/04/26 07:39:11;;;;;;;7.75;2.88;;;;;;;;;;5091168;28;20382;-67
2021/04/26 07:41:37;;;;;;;7.72;2.80;;;;;;;;;;5095001;28;20420;-67
2021/04/26 07:44:03;;;;;;;11.57;3.00;;;;;;;;;;5096612;28;20826;-67
2021/04/26 07:46:29;;;;;;;8.88;3.10;;;;;;;;;;5100595;28;20386;-67
2021/04/26 07:48:55;;;;;;;8.98;3.03;;;;;;;;;;5090510;28;20466;-67
2021/04/26 07:51:21;;;;;;;9.02;3.00;;;;;;;;;;5082410;28;20471;-67
2021/04/26 07:53:47;;;;;;;6.57;2.53;;;;;;;;;;5084307;28;20904;-67
2021/04/26 07:56:13;;;;;;;8.38;2.58;;;;;;;;;;5068993;28;20404;-67
2021/04/26 07:58:39;;;;;;;10.48;2.97;;;;;;;;;;5077417;28;20396;-67
2021/04/26 08:01:05;;;;;;;7.95;2.83;;;;;;;;;;5079006;28;20422;-67
2021/04/26 08:03:31;;;;;;;8.40;2.60;;;;;;;;;;5072821;28;20446;-68
2021/04/26 08:05:57;;;;;;;6.18;2.70;;;;;;;;;;5074659;28;21035;-67
2021/04/26 08:08:23;;;;;;;6.53;2.55;;;;;;;;;;5112643;28;20374;-68
2021/04/26 08:10:49;;;;;;;7.03;2.75;;;;;;;;;;5110494;28;20361;-68
2021/04/26 08:13:15;;;;;;;5.93;2.33;;;;;;;;;;5079948;28;20427;-67
2021/04/26 08:15:41;;;;;;;6.10;2.50;;;;;;;;;;5091095;28;20417;-68
2021/04/26 08:18:07;;;;;;;6.72;2.55;;;;;;;;;;5080203;28;20866;-67
2021/04/26 08:20:35;;;;;;;7.97;2.53;;;;;;;;;;5092348;28;20383;-68
2021/04/26 08:23:01;;;;;;;14.02;2.92;;;;;;;;;;5088575;28;20413;-67
2021/04/26 08:25:27;;;;;;;9.00;2.83;;;;;;;;;;5097757;28;20426;-67
2021/04/26 08:27:55;;;;;;;7.80;2.90;;;;;;;;;;5094441;28;20463;-67
2021/04/26 08:30:21;;;;;;;6.65;2.50;;;;;;;;;;5092298;28;20464;-68
2021/04/26 08:32:47;;;;;;;6.93;2.38;;;;;;;;;;5094053;28;20771;-68
2021/04/26 08:35:13;;;;;;;8.23;2.40;;;;;;;;;;5099559;28;20380;-67
2021/04/26 08:37:39;;;;;;;7.97;2.70;;;;;;;;;;5094936;28;20379;-67
2021/04/26 08:40:06;;;;;;;7.40;2.58;;;;;;;;;;5084623;28;20540;-67
2021/04/26 08:42:32;;;;;;;9.02;3.00;;;;;;;;;;5088225;28;20393;-67
2021/04/26 08:44:58;;;;;;;8.00;2.88;;;;;;;;;;5091784;28;20397;-68
2021/04/26 08:47:25;;;;;;;6.10;2.43;;;;;;;;;;5084882;28;20405;-68
2021/04/26 08:49:58;;;;;;;9.20;2.72;;;;;;;;;;5094538;28;20498;-67
2021/04/26 08:52:24;;;;;;;9.30;3.20;;;;;;;;;;5093372;28;20388;-68
2021/04/26 08:54:50;;;;;;;7.93;2.75;;;;;;;;;;5089951;28;20400;-68
2021/04/26 08:57:16;;;;;;;6.50;2.45;;;;;;;;;;5090348;28;20423;-67
2021/04/26 08:59:43;;;;;;;6.68;2.42;;;;;;;;;;5089659;28;20582;-68
2021/04/26 09:02:10;;;;;;;6.07;2.67;;;;;;;;;;5088801;28;20912;-68
2021/04/26 09:04:37;;;;;;;6.28;2.50;;;;;;;;;;5100740;28;20492;-68
2021/04/26 09:07:04;;;;;;;6.57;2.33;;;;;;;;;;5102071;28;20395;-67
2021/04/26 09:09:34;;;;;;;6.50;2.42;;;;;;;;;;5070002;28;20395;-67
2021/04/26 09:12:00;;;;;;;5.35;2.38;;;;;;;;;;5091702;28;20547;-67
2021/04/26 09:14:36;;;;;;;9.07;2.83;;;;;;;;;;5080648;28;20379;-67
2021/04/26 09:17:20;;;;;;;8.55;2.90;;;;;;;;;;5077912;28;20461;-67
2021/04/26 09:19:46;;;;;;;7.45;2.67;;;;;;;;;;5097970;28;20392;-69
2021/04/26 09:22:14;;;;;;;8.77;2.33;;;;;;;;;;5088535;28;20402;-68
2021/04/26 09:24:40;;;;;;;7.35;2.40;;;;;;;;;;5077758;28;20384;-68
2021/04/26 09:27:10;;;;;;;8.40;2.47;;;;;;;;;;5084203;28;20412;-68
2021/04/26 09:29:37;;;;;;;7.00;2.50;;;;;;;;;;5091439;28;20389;-68
2021/04/26 09:32:13;;;;;;;6.25;2.38;;;;;;;;;;5089403;28;20424;-68
2021/04/26 09:34:41;;;;;;;7.65;2.38;;;;;;;;;;5083836;28;21237;-68
2021/04/26 09:37:17;;;;;;;6.95;2.35;;;;;;;;;;5099903;28;20414;-68
2021/04/26 09:40:02;;;;;;;7.25;2.60;;;;;;;;;;5074732;28;20393;-68
2021/04/26 09:42:46;;;;;;;7.78;2.90;;;;;;;;;;5081465;28;20402;-67
2021/04/26 09:45:16;;;;;;;5.80;2.13;;;;;;;;;;5076816;28;20404;-69
2021/04/26 09:47:42;;;;;;;6.18;2.38;;;;;;;;;;5082130;28;20406;-68
2021/04/26 09:50:09;;;;;;;7.00;2.50;;;;;;;;;;5090020;28;20398;-68
2021/04/26 09:52:34;;;;;;;8.80;2.35;;;;;;;;;;5088137;28;20389;-68
2021/04/26 09:55:00;;;;;;;7.85;2.70;;;;;;;;;;5089025;28;20407;-68
2021/04/26 09:57:27;;;;;;;6.03;2.20;;;;;;;;;;5088018;28;20421;-68
2021/04/26 09:59:54;;;;;;;8.00;2.70;;;;;;;;;;5096521;28;20402;-68
2021/04/26 10:02:20;;;;;;;7.05;2.40;;;;;;;;;;5091691;28;20384;-67
2021/04/26 10:04:47;;;;;;;7.70;2.45;;;;;;;;;;5108849;28;20457;-69
2021/04/26 10:07:13;;;;;;;7.10;2.70;;;;;;;;;;5091237;28;20450;-68
2021/04/26 10:09:44;;;;;;;5.13;2.17;;;;;;;;;;5093021;28;20942;-67
2021/04/26 10:12:10;;;;;;;6.97;2.58;;;;;;;;;;5079308;28;20378;-69
2021/04/26 10:14:40;;;;;;;6.30;2.47;;;;;;;;;;5093372;28;20714;-68
2021/04/26 10:17:10;;;;;;;6.32;2.40;;;;;;;;;;5082716;28;20724;-68
2021/04/26 10:19:36;;;;;;;4.85;2.20;;;;;;;;;;5090901;28;20404;-69
2021/04/26 10:22:03;;;;;;;5.22;1.92;;;;;;;;;;5089715;28;20385;-68
2021/04/26 10:24:31;;;;;;;6.78;2.33;;;;;;;;;;5072652;28;20385;-68
2021/04/26 10:27:01;;;;;;;6.80;2.63;;;;;;;;;;5085851;28;20397;-68
2021/04/26 10:29:35;;;;;;;7.97;2.70;;;;;;;;;;5080213;28;20487;-67
2021/04/26 10:32:03;;;;;;;5.95;2.30;;;;;;;;;;5089127;28;20393;-67
2021/04/26 10:34:29;;;;;;;9.32;2.60;;;;;;;;;;5087364;28;20378;-67
2021/04/26 10:36:57;;;;;;;6.43;2.58;;;;;;;;;;5071584;28;20401;-67
2021/04/26 10:39:24;;;;;;;6.15;2.38;;;;;;;;;;5088727;28;20382;-67
2021/04/26 10:41:55;;;;;;;6.43;2.20;;;;;;;;;;5089292;28;20370;-67
2021/04/26 10:44:39;;;;;;;6.80;2.47;;;;;;;;;;5089682;28;20413;-67
2021/04/26 10:47:16;;;;;;;5.82;2.40;;;;;;;;;;5071817;28;20708;-67
2021/04/26 10:49:42;;;;;;;6.65;2.70;;;;;;;;;;5089129;28;20417;-67
2021/04/26 10:52:30;;;;;;;7.05;2.25;;;;;;;;;;5084943;28;20397;-67
2021/04/26 10:55:07;;;;;;;6.30;2.28;;;;;;;;;;5080382;28;20876;-67
2021/04/26 10:57:37;;;;;;;6.57;2.45;;;;;;;;;;5087598;28;20406;-67
2021/04/26 11:00:21;;;;;;;5.75;2.30;;;;;;;;;;5080003;28;20509;-69
2021/04/26 11:02:49;;;;;;;5.25;2.20;;;;;;;;;;5083450;28;20427;-67
2021/04/26 11:05:16;;;;;;;7.35;1.92;;;;;;;;;;5089422;28;20370;-68
2021/04/26 11:07:43;;;;;;;5.55;2.20;;;;;;;;;;5092947;28;20498;-68
2021/04/26 11:10:28;;;;;;;8.52;2.75;;;;;;;;;;5091407;28;20373;-67
2021/04/26 11:12:56;;;;;;;5.18;2.13;;;;;;;;;;5091737;28;20418;-67
2021/04/26 11:15:23;;;;;;;5.63;2.03;;;;;;;;;;5092940;28;20381;-67
2021/04/26 11:17:49;;;;;;;5.50;2.23;;;;;;;;;;5103516;28;20419;-68
2021/04/26 11:20:25;;;;;;;6.47;2.53;;;;;;;;;;5107774;28;20584;-67
2021/04/26 11:22:53;;;;;;;5.22;2.10;;;;;;;;;;5082923;28;20394;-68
2021/04/26 11:25:37;;;;;;;7.53;2.60;;;;;;;;;;5082864;28;20947;-67
2021/04/26 11:28:04;;;;;;;7.45;2.60;;;;;;;;;;5092230;28;20468;-67
2021/04/26 11:30:35;;;;;;;9.18;2.63;;;;;;;;;;5093235;28;20394;-67
2021/04/26 11:33:02;;;;;;;6.43;2.47;;;;;;;;;;5111799;28;20380;-67
2021/04/26 11:35:29;;;;;;;5.45;2.40;;;;;;;;;;5099795;28;20416;-68
2021/04/26 11:37:56;;;;;;;6.63;2.50;;;;;;;;;;5089044;28;20765;-68
2021/04/26 11:40:26;;;;;;;7.37;2.77;;;;;;;;;;5093098;28;20436;-67
2021/04/26 11:43:00;;;;;;;7.43;2.37;;;;;;;;;;5090602;28;20374;-68
2021/04/26 11:45:26;;;;;;;9.88;2.88;;;;;;;;;;5092458;28;20431;-69
2021/04/26 11:47:53;;;;;;;6.72;2.75;;;;;;;;;;5091123;28;20374;-68
2021/04/26 11:50:19;;;;;;;6.07;2.60;;;;;;;;;;5097878;28;20385;-68
2021/04/26 11:52:45;;;;;;;5.65;2.65;;;;;;;;;;5108029;28;20691;-68
2021/04/26 11:55:12;;;;;;;7.47;2.70;;;;;;;;;;5088132;28;20418;-68
2021/04/26 11:57:40;;;;;;;6.47;2.50;;;;;;;;;;5072983;28;20376;-68
2021/04/26 12:00:08;;;;;;;7.20;2.63;;;;;;;;;;5087170;28;20653;-68
2021/04/26 12:02:37;;;;;;;6.18;2.88;;;;;;;;;;5091404;28;20461;-68
2021/04/26 12:05:04;;;;;;;6.57;2.47;;;;;;;;;;5092469;28;20385;-68
2021/04/26 12:07:31;;;;;;;9.73;2.58;;;;;;;;;;5091560;28;20818;-68
2021/04/26 12:09:59;;;;;;;7.68;2.55;;;;;;;;;;5092143;28;21019;-68
2021/04/26 12:12:29;;;;;;;8.32;2.55;;;;;;;;;;5090685;28;20904;-68
2021/04/26 12:14:56;;;;;;;6.50;2.30;;;;;;;;;;5086940;28;20375;-67
2021/04/26 12:17:26;;;;;;;7.15;2.75;;;;;;;;;;5071325;28;20761;-68
2021/04/26 12:19:53;;;;;;;8.40;2.88;;;;;;;;;;5063797;28;21049;-67
2021/04/26 12:22:20;;;;;;;7.07;2.50;;;;;;;;;;5089079;28;20397;-68
2021/04/26 12:24:47;;;;;;;6.75;2.53;;;;;;;;;;5089605;28;20765;-67
2021/04/26 12:27:14;;;;;;;9.93;2.77;;;;;;;;;;5091841;28;20366;-68
2021/04/26 12:29:40;;;;;;;7.40;2.33;;;;;;;;;;5091291;28;20370;-68
2021/04/26 12:32:09;;;;;;;6.57;2.50;;;;;;;;;;5091001;28;20439;-68
2021/04/26 12:34:47;;;;;;;5.28;2.40;;;;;;;;;;5086140;28;20474;-68
2021/04/26 12:37:14;;;;;;;7.22;2.75;;;;;;;;;;5090337;28;20521;-68
2021/04/26 12:39:40;;;;;;;7.38;2.97;;;;;;;;;;5091327;28;20398;-69
2021/04/26 12:42:14;;;;;;;9.05;2.50;;;;;;;;;;5089747;28;20451;-69
2021/04/26 12:44:40;;;;;;;5.45;2.28;;;;;;;;;;5090504;28;20402;-68
2021/04/26 12:47:18;;;;;;;6.00;2.33;;;;;;;;;;5091109;28;20381;-68
2021/04/26 12:49:46;;;;;;;8.77;3.15;;;;;;;;;;5087647;28;20367;-68
2021/04/26 12:52:16;;;;;;;7.10;2.30;;;;;;;;;;5054725;28;20820;-68
2021/04/26 12:55:01;;;;;;;9.80;2.90;;;;;;;;;;5071362;28;20410;-68
2021/04/26 12:57:27;;;;;;;5.95;2.40;;;;;;;;;;5053433;28;20968;-68
2021/04/26 12:59:55;;;;;;;7.00;2.50;;;;;;;;;;5071306;28;20367;-68
2021/04/26 13:02:24;;;;;;;7.80;2.65;;;;;;;;;;5070983;28;20451;-68
2021/04/26 13:04:51;;;;;;;7.18;2.30;;;;;;;;;;5077105;28;20419;-68
2021/04/26 13:07:18;;;;;;;7.55;2.53;;;;;;;;;;5082614;28;20685;-68
2021/04/26 13:09:44;;;;;;;5.32;2.10;;;;;;;;;;5079009;28;20362;-68
2021/04/26 13:12:10;;;;;;;7.25;2.30;;;;;;;;;;5091139;28;20373;-68
2021/04/26 13:14:36;;;;;;;6.50;2.30;;;;;;;;;;5088497;28;20382;-68
2021/04/26 13:17:04;;;;;;;5.53;2.50;;;;;;;;;;5084149;28;20406;-68
2021/04/26 13:19:30;;;;;;;6.05;2.40;;;;;;;;;;5071560;28;20383;-68
2021/04/26 13:21:57;;;;;;;5.45;2.10;;;;;;;;;;5078279;28;20476;-68
2021/04/26 13:24:24;;;;;;;6.25;2.33;;;;;;;;;;5081344;28;20388;-68
2021/04/26 13:27:04;;;;;;;5.68;2.47;;;;;;;;;;5102354;28;20652;-68
2021/04/26 13:29:33;;;;;;;4.97;2.10;;;;;;;;;;5095626;28;20390;-68
2021/04/26 13:32:00;;;;;;;6.90;2.25;;;;;;;;;;5060719;28;20394;-68
2021/04/26 13:34:27;;;;;;;5.95;2.10;;;;;;;;;;5084901;28;20409;-69
2021/04/26 13:36:53;;;;;;;4.65;2.40;;;;;;;;;;5098349;28;20501;-68
2021/04/26 13:39:19;;;;;;;;;;;;;;;;;;5086229;28;20388;-68
2021/04/26 13:41:46;;;;;;;6.18;2.20;;;;;;;;;;5094040;28;20418;-68
2021/04/26 13:44:12;;;;;;;;;;;;;;;;;;5091718;28;20469;-68
2021/04/26 13:46:38;;;;;;;5.45;2.22;;;;;;;;;;5094077;28;21063;-68
2021/04/26 13:49:05;;;;;;;4.43;1.70;;;;;;;;;;5110494;28;20446;-68
2021/04/26 13:51:31;;;;;;;5.17;2.10;;;;;;;;;;5094326;28;20389;-68
2021/04/26 13:53:57;;;;;;;5.38;1.80;;;;;;;;;;5089241;28;20382;-68
2021/04/26 13:56:23;;;;;;;;;;;;;;;;;;5083184;28;20438;-69
2021/04/26 13:58:49;;;;;;;5.27;2.03;;;;;;;;;;5090092;28;20930;-68
2021/04/26 14:01:15;;;;;;;5.43;1.90;;;;;;;;;;5090598;28;20370;-68
2021/04/26 14:03:43;;;;;;;5.53;2.08;;;;;;;;;;5088881;28;20905;-68
2021/04/26 14:06:09;;;;;;;6.28;2.22;;;;;;;;;;5089283;28;20409;-68
2021/04/26 14:08:35;;;;;;;5.95;1.90;;;;;;;;;;5110563;28;20795;-68
2021/04/26 14:11:01;;;;;;;5.30;2.17;;;;;;;;;;5110559;28;20361;-68
2021/04/26 14:13:27;;;;;;;5.03;1.90;;;;;;;;;;5076346;28;20406;-68
2021/04/26 14:15:53;;;;;;;4.38;1.83;;;;;;;;;;5077525;28;20404;-69
2021/04/26 14:18:20;;;;;;;5.28;2.10;;;;;;;;;;5052544;28;20407;-68
2021/04/26 14:20:46;;;;;;;4.63;1.70;;;;;;;;;;5098762;28;20411;-68
2021/04/26 14:23:12;;;;;;;3.75;1.70;;;;;;;;;;5098894;28;20382;-68
2021/04/26 14:25:39;;;;;;;5.63;1.70;;;;;;;;;;5089667;28;20378;-68
2021/04/26 14:28:06;;;;;;;6.05;2.17;;;;;;;;;;5089916;28;20363;-66
2021/04/26 14:30:33;;;;;;;5.25;1.98;;;;;;;;;;5089721;28;20427;-68
2021/04/26 14:32:59;;;;;;;4.20;1.88;;;;;;;;;;5057338;28;20380;-68
2021/04/26 14:35:26;;;;;;;7.10;1.95;;;;;;;;;;5092970;28;20384;-68
2021/04/26 14:37:52;;;;;;;5.20;2.10;;;;;;;;;;5094705;28;20885;-69
2021/04/26 14:40:18;;;;;;;4.55;2.00;;;;;;;;;;5088077;28;20465;-68
2021/04/26 14:42:44;;;;;;;6.10;2.00;;;;;;;;;;5076174;28;20418;-68
2021/04/26 14:45:10;;;;;;;8.07;1.75;;;;;;;;;;5091098;28;20439;-69